createdAt,value
2023-07-11T00:05:38.919Z,0.01
2023-07-11T00:20:35.004Z,0
2023-07-11T00:35:31.335Z,0
2023-07-11T00:50:27.311Z,0
2023-07-11T01:05:23.572Z,0
2023-07-11T01:20:19.511Z,0.01
2023-07-11T01:35:15.463Z,0
2023-07-11T01:50:11.698Z,0
2023-07-11T02:05:08.419Z,0
2023-07-11T02:20:04.490Z,0.01
2023-07-11T02:35:00.258Z,0
2023-07-11T02:49:56.801Z,0
2023-07-11T03:04:53.254Z,0
2023-07-11T03:19:49.302Z,0
2023-07-11T03:34:53.506Z,0.04
2023-07-11T03:49:41.760Z,0.03
2023-07-11T04:04:37.920Z,0.04
2023-07-11T04:19:34.082Z,0.04
2023-07-11T04:34:30.313Z,0.05
2023-07-11T04:49:27.298Z,0.07
2023-07-11T05:04:23.484Z,0.08
2023-07-11T05:19:20.085Z,0.08
2023-07-11T05:34:17.157Z,0.08
2023-07-11T05:49:14.018Z,0.09
2023-07-11T06:04:11.045Z,0.06
2023-07-11T06:19:07.623Z,0.09
2023-07-11T06:34:04.362Z,0.1
2023-07-11T06:49:00.649Z,0.1
2023-07-11T07:03:57.326Z,0.1
2023-07-11T07:18:54.204Z,0.1
2023-07-11T07:33:50.700Z,0.13
2023-07-11T07:48:47.152Z,0.15
2023-07-11T08:03:44.382Z,0.16
2023-07-11T08:18:41.281Z,0.16
2023-07-11T08:33:38.305Z,0.19
2023-07-11T08:48:35.010Z,0.22
2023-07-11T09:03:32.202Z,0.29
2023-07-11T09:18:30.482Z,0.5
2023-07-11T09:33:26.916Z,0.77
2023-07-11T09:48:23.513Z,0.9
2023-07-11T10:03:20.541Z,1.03
2023-07-11T10:18:17.894Z,1.08
2023-07-11T10:33:21.520Z,0.77
2023-07-11T10:48:11.837Z,0.63
2023-07-11T11:03:08.746Z,0.54
2023-07-11T11:18:05.239Z,0.54
2023-07-11T11:33:02.151Z,1.58
2023-07-11T12:02:55.308Z,0.42
2023-07-11T12:17:52.206Z,0.47
2023-07-11T12:32:48.747Z,0.46
2023-07-11T12:47:47.746Z,0.69
2023-07-11T13:02:41.835Z,1.09
2023-07-11T13:17:38.157Z,1.97
2023-07-11T13:32:34.411Z,0.71
2023-07-11T13:47:30.910Z,0.83
2023-07-11T14:02:27.023Z,0.19
2023-07-11T14:17:23.161Z,0.23
2023-07-11T14:32:18.954Z,0.16
2023-07-11T14:47:14.977Z,0.15
2023-07-11T15:02:11.419Z,0.19
2023-07-11T15:17:07.358Z,0.15
2023-07-11T15:32:03.660Z,0.13
2023-07-11T15:46:59.594Z,0.13
2023-07-11T16:01:55.809Z,0.13
2023-07-11T16:16:51.902Z,0.15
2023-07-11T16:31:47.927Z,0.1
2023-07-11T16:46:43.979Z,0.09
2023-07-11T17:01:40.135Z,0.1
2023-07-11T17:16:35.955Z,0.05
2023-07-11T17:31:31.258Z,0.1
2023-07-11T18:01:23.988Z,0.06
2023-07-11T18:16:20.039Z,0.1
2023-07-11T18:31:16.103Z,0.1
2023-07-11T18:46:12.764Z,0.09
2023-07-11T19:01:08.943Z,0.05
2023-07-11T19:16:05.016Z,0.03
2023-07-11T19:31:00.450Z,0.05
2023-07-11T19:45:55.964Z,0.03
2023-07-11T20:00:51.959Z,0.02
2023-07-11T20:15:47.833Z,0.01
2023-07-11T20:30:43.754Z,0.01
2023-07-11T20:45:39.657Z,0
2023-07-11T22:00:19.945Z,0
2023-07-11T22:15:15.656Z,0
2023-07-11T22:30:12.078Z,0.01
2023-07-11T22:45:08.538Z,0
2023-07-11T23:00:04.007Z,0
2023-07-11T23:15:00.078Z,0
2023-07-11T23:29:56.564Z,0
2023-07-11T23:44:52.861Z,0.01
2023-07-11T23:59:49.300Z,0
